KLNC

Details ICAO KLNC
Name LANCASTER
Region United States
Timezone America/Chicago (UTC-5.0)
Plans Departing 2
Arriving 9
Stats Elevation 500 ft / 152 m (AMSL)
Location 32.577603° -96.717508°
Runways 1
Magnetic Variation 3.196° E
Sunrise 2018-05-21 11:26:06 UTC / 2018-05-21 06:26:06 Local
Sunset 2018-05-22 01:23:43 UTC / 2018-05-21 20:23:43 Local
Advertisement - Login to hide

Runways

ID Width Length Bearing (true) Bearing (mag) Surface Threshold Offset Overrun Length
13 100 ft / 30 m 6,506 ft / 1,983 m 140.45° 137.25° Asphalt 0 ft / 0 m 0 ft / 0 m
31 100 ft / 30 m 6,506 ft / 1,983 m 320.45° 317.25° Asphalt 0 ft / 0 m 0 ft / 0 m

Map

Weather


0- 5 10 15 20 25 30 35+ Temperature / ° C

Clouds and Precipitation
Forecast for 2018-05-21 06:00 UTC. Updated 3 hours ago

Ground ~20,000 ft ~40,000 ft Winds

METAR

KLNC 210735Z AUTO 00000KT 10SM CLR 19/18 A3000 RMK AO2 T01850180

TAF

Not found

Frequencies

Recorded 118.97 MHz AWOS 3
Approach 125.20 MHz RGNL APP/DEP
Unicom 122.70 MHz CTAF/UNICOM
Warning: Do not use this data for real-world aviation or navigation. No guarantee of current accuracy is given.